createdAt,value
2019-02-20T00:04:33.086Z,49.80
2019-02-20T00:09:37.777Z,82.10
2019-02-20T00:14:42.516Z,63.93
2019-02-20T00:19:47.158Z,47.90
2019-02-20T00:24:51.901Z,58.27
2019-02-20T00:29:58.281Z,49.13
2019-02-20T00:35:03.025Z,41.43
2019-02-20T00:40:09.803Z,45.10
2019-02-20T00:45:28.154Z,48.10
2019-02-20T00:50:34.329Z,49.93
2019-02-20T00:55:39.097Z,46.90
2019-02-20T01:00:43.733Z,42.53
2019-02-20T01:05:48.475Z,48.00
2019-02-20T01:10:53.118Z,48.07
2019-02-20T01:15:59.716Z,45.43
2019-02-20T01:21:04.143Z,275.67
2019-02-20T01:26:10.509Z,80.83
2019-02-20T01:31:16.047Z,83.20
2019-02-20T01:36:20.824Z,138.57
2019-02-20T01:41:25.565Z,127.90
2019-02-20T01:46:31.954Z,108.70
2019-02-20T01:51:37.613Z,100.93
2019-02-20T01:56:42.243Z,108.93
2019-02-20T02:01:47.991Z,94.67
2019-02-20T02:06:52.660Z,61.90
2019-02-20T02:11:57.401Z,60.03
2019-02-20T02:17:02.140Z,39.10
2019-02-20T02:22:06.888Z,33.63
2019-02-20T02:27:11.530Z,41.27
2019-02-20T02:32:16.371Z,110.73
2019-02-20T02:37:21.011Z,47.03
2019-02-20T02:42:25.664Z,41.50
2019-02-20T02:47:30.905Z,48.13
2019-02-20T02:52:35.650Z,53.97
2019-02-20T02:57:41.393Z,51.50
2019-02-20T03:02:46.918Z,85.40
2019-02-20T03:07:51.513Z,66.00
2019-02-20T03:12:56.154Z,52.57
2019-02-20T03:18:00.793Z,55.13
2019-02-20T03:23:05.429Z,55.50
2019-02-20T03:28:10.075Z,52.33
2019-02-20T03:33:14.818Z,45.40
2019-02-20T03:38:29.647Z,59.27
2019-02-20T03:43:25.837Z,37.27
2019-02-20T03:48:30.480Z,47.70
2019-02-20T03:53:35.327Z,123.57
2019-02-20T03:58:40.068Z,78.47
2019-02-20T04:03:44.808Z,48.43
2019-02-20T04:08:49.465Z,33.33
2019-02-20T04:13:54.197Z,40.13
2019-02-20T04:18:58.934Z,61.17
2019-02-20T04:24:05.385Z,87.73
2019-02-20T04:29:10.161Z,76.77
2019-02-20T04:34:15.007Z,92.57
2019-02-20T04:39:19.650Z,98.03
2019-02-20T04:44:24.697Z,141.77
2019-02-20T04:49:29.337Z,110.97
2019-02-20T04:54:34.083Z,136.30
2019-02-20T04:59:38.821Z,98.13
2019-02-20T05:04:43.560Z,108.60
2019-02-20T05:09:48.309Z,103.40
2019-02-20T05:14:52.899Z,90.10
2019-02-20T05:19:57.434Z,90.83
2019-02-20T05:25:02.298Z,100.87
2019-02-20T05:30:08.931Z,114.80
2019-02-20T05:35:13.657Z,106.47
2019-02-20T05:40:18.399Z,100.07
2019-02-20T05:45:23.142Z,122.27
2019-02-20T05:50:27.990Z,127.73
2019-02-20T05:55:32.653Z,110.87
2019-02-20T06:00:37.378Z,139.97
2019-02-20T06:05:42.008Z,196.40
2019-02-20T06:10:46.938Z,161.97
2019-02-20T06:15:51.864Z,153.23
2019-02-20T06:20:57.449Z,154.23
2019-02-20T06:26:02.237Z,171.97
2019-02-20T06:31:07.027Z,160.07
2019-02-20T06:36:12.925Z,130.80
2019-02-20T06:41:17.663Z,124.37
2019-02-20T06:46:22.407Z,108.50
2019-02-20T06:51:27.050Z,131.33
2019-02-20T06:56:31.805Z,116.40
2019-02-20T07:01:37.557Z,102.53
2019-02-20T07:06:51.003Z,111.30
2019-02-20T07:12:30.672Z,99.37
2019-02-20T07:17:53.641Z,142.77
2019-02-20T07:23:10.781Z,143.23
2019-02-20T07:28:30.973Z,134.67
2019-02-20T07:33:35.747Z,150.33
2019-02-20T07:38:42.120Z,158.00
2019-02-20T07:43:46.680Z,179.70
2019-02-20T07:48:51.479Z,151.77
2019-02-20T07:53:56.125Z,134.27
2019-02-20T07:59:02.227Z,129.43
2019-02-20T08:04:07.875Z,113.20
2019-02-20T08:09:12.814Z,110.47
2019-02-20T08:14:17.550Z,82.70
2019-02-20T08:19:22.194Z,65.37
2019-02-20T08:24:27.959Z,67.50
2019-02-20T08:29:32.546Z,57.30
2019-02-20T08:34:37.238Z,52.27
2019-02-20T08:39:41.812Z,48.17
2019-02-20T08:44:46.531Z,56.87
2019-02-20T08:49:51.168Z,62.00
2019-02-20T08:54:56.008Z,55.60
2019-02-20T09:00:00.650Z,56.63
2019-02-20T09:05:09.057Z,58.47
2019-02-20T09:10:14.129Z,61.63
2019-02-20T09:15:18.872Z,53.67
2019-02-20T09:20:23.715Z,53.77
2019-02-20T09:25:30.101Z,53.03
2019-02-20T09:30:34.846Z,49.43
2019-02-20T09:35:39.512Z,43.77
2019-02-20T09:40:45.251Z,52.83
2019-02-20T09:45:50.816Z,27.03
2019-02-20T09:50:55.378Z,34.23
2019-02-20T09:56:00.196Z,24.50
2019-02-20T10:01:04.841Z,24.93
2019-02-20T10:06:09.481Z,23.00
2019-02-20T10:11:14.221Z,20.93
2019-02-20T10:16:18.970Z,33.90
2019-02-20T10:21:23.713Z,32.70
2019-02-20T10:26:28.454Z,34.13
2019-02-20T10:31:33.225Z,15.37
2019-02-20T10:36:37.942Z,18.30
2019-02-20T10:41:42.576Z,18.60
2019-02-20T10:46:47.320Z,23.93
2019-02-20T10:51:52.072Z,17.00
2019-02-20T10:56:56.816Z,19.23
2019-02-20T11:02:01.554Z,21.43
2019-02-20T11:07:07.319Z,19.17
2019-02-20T11:12:12.064Z,21.30
2019-02-20T11:17:17.012Z,25.60
2019-02-20T11:22:21.756Z,20.53
2019-02-20T11:27:26.532Z,17.27
2019-02-20T11:32:31.246Z,16.73
2019-02-20T11:37:35.892Z,18.57
2019-02-20T11:42:40.630Z,22.80
2019-02-20T11:47:45.375Z,13.33
2019-02-20T11:52:50.119Z,21.97
2019-02-20T11:58:00.803Z,18.87
2019-02-20T12:03:02.779Z,21.50
2019-02-20T12:08:07.827Z,20.17
2019-02-20T12:13:12.573Z,18.93
2019-02-20T12:18:17.721Z,23.57
2019-02-20T12:23:24.215Z,17.23
2019-02-20T12:28:28.951Z,19.60
2019-02-20T12:33:35.434Z,16.07
2019-02-20T12:38:40.179Z,24.33
2019-02-20T12:43:44.926Z,11.37
2019-02-20T12:48:49.701Z,12.43
2019-02-20T12:53:55.159Z,12.93
2019-02-20T12:59:07.562Z,13.80
2019-02-20T13:04:07.483Z,12.20
2019-02-20T13:09:13.867Z,17.63
2019-02-20T13:14:19.019Z,11.67
2019-02-20T13:19:23.763Z,12.77
2019-02-20T13:24:29.309Z,13.30
2019-02-20T13:29:34.071Z,19.30
2019-02-20T13:34:41.981Z,20.03
2019-02-20T13:39:46.729Z,15.70
2019-02-20T13:44:53.851Z,17.20
2019-02-20T13:49:58.671Z,14.83
2019-02-20T13:55:03.313Z,14.17
2019-02-20T14:00:13.336Z,19.07
2019-02-20T14:05:20.075Z,19.70
2019-02-20T14:10:24.918Z,11.80
2019-02-20T14:15:29.987Z,18.00
2019-02-20T14:20:34.739Z,11.57
2019-02-20T14:25:39.453Z,18.23
2019-02-20T14:30:45.845Z,35.43
2019-02-20T14:35:50.581Z,18.60
2019-02-20T14:40:57.065Z,16.70
2019-02-20T14:46:02.131Z,28.83
2019-02-20T14:51:06.856Z,14.60
2019-02-20T14:56:11.701Z,18.57
2019-02-20T15:01:16.451Z,10.37
2019-02-20T15:06:21.091Z,11.20
2019-02-20T15:11:26.404Z,11.20
2019-02-20T15:16:32.213Z,13.80
2019-02-20T15:21:37.159Z,13.73
2019-02-20T15:26:41.907Z,17.80
2019-02-20T15:31:46.750Z,16.57
2019-02-20T15:36:51.627Z,31.40
2019-02-20T15:41:56.669Z,58.20
2019-02-20T15:47:01.928Z,24.60
2019-02-20T15:52:06.747Z,122.73
2019-02-20T15:57:11.819Z,159.60
2019-02-20T16:02:16.650Z,24.43
2019-02-20T16:07:21.835Z,23.20
2019-02-20T16:12:27.204Z,17.67
2019-02-20T16:17:33.050Z,21.73
2019-02-20T16:22:39.167Z,17.33
2019-02-20T16:27:47.078Z,26.37
2019-02-20T16:32:51.322Z,39.67
2019-02-20T16:37:56.216Z,133.50
2019-02-20T16:43:00.956Z,136.37
2019-02-20T16:48:05.689Z,126.93
2019-02-20T16:53:10.530Z,87.43
2019-02-20T16:58:15.174Z,55.53
2019-02-20T17:03:19.911Z,124.40
2019-02-20T17:08:24.706Z,104.93
2019-02-20T17:13:29.717Z,83.30
2019-02-20T17:18:34.651Z,74.23
2019-02-20T17:23:39.401Z,101.80
2019-02-20T17:28:44.142Z,67.07
2019-02-20T17:33:49.811Z,54.53
2019-02-20T17:38:54.653Z,59.17
2019-02-20T17:43:59.291Z,68.10
2019-02-20T17:49:04.073Z,66.53
2019-02-20T17:54:08.777Z,77.87
2019-02-20T17:59:13.521Z,77.47
2019-02-20T18:04:18.267Z,46.67
2019-02-20T18:09:23.006Z,59.97
2019-02-20T18:14:27.757Z,92.47
2019-02-20T18:19:32.496Z,71.20
2019-02-20T18:24:37.344Z,58.23
2019-02-20T18:29:42.388Z,67.23
2019-02-20T18:34:47.343Z,57.77
2019-02-20T18:39:53.142Z,49.87
2019-02-20T18:44:57.966Z,50.30
2019-02-20T18:50:02.705Z,63.17
2019-02-20T18:55:09.830Z,136.50
2019-02-20T19:00:20.349Z,44.03
2019-02-20T19:05:26.961Z,95.03
2019-02-20T19:10:37.964Z,101.70
2019-02-20T19:16:08.605Z,86.77
2019-02-20T19:21:31.986Z,57.73
2019-02-20T19:26:43.113Z,58.07
2019-02-20T19:31:54.584Z,41.03
2019-02-20T19:37:18.973Z,38.30
2019-02-20T19:42:46.465Z,42.43
2019-02-20T19:48:24.676Z,36.13
2019-02-20T19:53:35.483Z,45.70
2019-02-20T19:59:09.305Z,39.37
2019-02-20T20:04:24.233Z,42.50
2019-02-20T20:09:38.898Z,36.33
2019-02-20T20:14:58.772Z,91.80
2019-02-20T20:20:21.629Z,75.07
2019-02-20T20:25:35.281Z,56.27
2019-02-20T20:30:45.661Z,70.30
2019-02-20T20:35:59.218Z,70.37
2019-02-20T20:41:09.137Z,55.50
2019-02-20T20:46:36.126Z,49.83
2019-02-20T20:52:00.724Z,58.40
2019-02-20T20:57:21.025Z,46.30
2019-02-20T21:02:34.472Z,54.53
2019-02-20T21:07:57.549Z,41.23
2019-02-20T21:13:34.992Z,38.60
2019-02-20T21:19:04.281Z,42.13
2019-02-20T21:24:27.185Z,43.70
2019-02-20T21:29:38.094Z,51.00
2019-02-20T21:35:11.448Z,42.07
2019-02-20T21:40:19.361Z,42.13
2019-02-20T21:45:48.443Z,44.47
2019-02-20T21:51:05.201Z,43.30
2019-02-20T21:56:24.809Z,46.80
2019-02-20T22:01:38.616Z,52.30
2019-02-20T22:07:07.884Z,38.87
2019-02-20T22:12:32.270Z,35.10
2019-02-20T22:17:45.836Z,44.53
2019-02-20T22:22:55.250Z,43.17
2019-02-20T22:28:14.894Z,55.60
2019-02-20T22:33:31.496Z,49.27
2019-02-20T22:38:56.191Z,58.10
2019-02-20T22:44:24.555Z,71.60
2019-02-20T22:49:52.067Z,68.73
2019-02-20T22:55:16.267Z,69.67
2019-02-20T23:00:41.854Z,62.83
2019-02-20T23:06:02.932Z,50.17
2019-02-20T23:11:30.505Z,44.63
2019-02-20T23:16:35.151Z,30.17
2019-02-20T23:21:41.549Z,23.97
2019-02-20T23:26:47.279Z,18.40
2019-02-20T23:31:51.927Z,18.23
2019-02-20T23:36:56.558Z,12.70
2019-02-20T23:42:01.315Z,14.70
2019-02-20T23:47:06.051Z,15.93
2019-02-20T23:52:10.802Z,16.53
2019-02-20T23:57:15.377Z,35.33
